sensor_id;sensor_type;location;lat;lon;timestamp;P1;durP1;ratioP1;P2;durP2;ratioP2
15982;SDS011;14442;50.196;8.096;2023-06-22T00:01:12;3.33;;;2.40;;
15982;SDS011;14442;50.196;8.096;2023-06-22T00:03:39;3.90;;;2.37;;
15982;SDS011;14442;50.196;8.096;2023-06-22T00:06:08;2.70;;;2.50;;
15982;SDS011;14442;50.196;8.096;2023-06-22T00:08:35;2.57;;;2.27;;
15982;SDS011;14442;50.196;8.096;2023-06-22T00:11:02;4.63;;;2.83;;
15982;SDS011;14442;50.196;8.096;2023-06-22T00:13:30;3.53;;;2.90;;
15982;SDS011;14442;50.196;8.096;2023-06-22T00:15:56;3.10;;;2.60;;
15982;SDS011;14442;50.196;8.096;2023-06-22T00:18:23;2.77;;;2.43;;
15982;SDS011;14442;50.196;8.096;2023-06-22T00:20:52;3.33;;;2.53;;
15982;SDS011;14442;50.196;8.096;2023-06-22T00:23:22;3.03;;;2.70;;
15982;SDS011;14442;50.196;8.096;2023-06-22T00:25:49;2.73;;;2.53;;
15982;SDS011;14442;50.196;8.096;2023-06-22T00:28:16;2.40;;;2.20;;
15982;SDS011;14442;50.196;8.096;2023-06-22T00:30:44;2.40;;;2.20;;
15982;SDS011;14442;50.196;8.096;2023-06-22T00:33:11;3.00;;;2.50;;
15982;SDS011;14442;50.196;8.096;2023-06-22T00:35:38;2.10;;;2.00;;
15982;SDS011;14442;50.196;8.096;2023-06-22T00:38:06;2.53;;;2.37;;
15982;SDS011;14442;50.196;8.096;2023-06-22T00:40:33;2.57;;;2.33;;
15982;SDS011;14442;50.196;8.096;2023-06-22T00:43:00;2.43;;;2.23;;
15982;SDS011;14442;50.196;8.096;2023-06-22T00:45:26;2.80;;;2.60;;
15982;SDS011;14442;50.196;8.096;2023-06-22T00:47:56;2.73;;;2.53;;
15982;SDS011;14442;50.196;8.096;2023-06-22T00:50:25;2.13;;;2.03;;
15982;SDS011;14442;50.196;8.096;2023-06-22T00:52:53;2.70;;;2.43;;
15982;SDS011;14442;50.196;8.096;2023-06-22T00:55:23;2.23;;;2.13;;
15982;SDS011;14442;50.196;8.096;2023-06-22T00:57:51;2.43;;;2.23;;
15982;SDS011;14442;50.196;8.096;2023-06-22T01:00:21;2.17;;;2.07;;
15982;SDS011;14442;50.196;8.096;2023-06-22T01:02:49;2.47;;;2.27;;
15982;SDS011;14442;50.196;8.096;2023-06-22T01:05:18;2.83;;;2.63;;
15982;SDS011;14442;50.196;8.096;2023-06-22T01:07:49;2.53;;;2.40;;
15982;SDS011;14442;50.196;8.096;2023-06-22T01:10:32;4.30;;;2.27;;
15982;SDS011;14442;50.196;8.096;2023-06-22T01:13:04;2.20;;;2.10;;
15982;SDS011;14442;50.196;8.096;2023-06-22T01:15:33;2.23;;;2.13;;
15982;SDS011;14442;50.196;8.096;2023-06-22T01:18:04;2.27;;;2.17;;
15982;SDS011;14442;50.196;8.096;2023-06-22T01:20:32;2.20;;;2.00;;
15982;SDS011;14442;50.196;8.096;2023-06-22T01:23:09;2.30;;;2.10;;
15982;SDS011;14442;50.196;8.096;2023-06-22T01:25:46;3.20;;;2.23;;
15982;SDS011;14442;50.196;8.096;2023-06-22T01:28:23;2.53;;;2.23;;
15982;SDS011;14442;50.196;8.096;2023-06-22T01:31:01;2.50;;;2.30;;
15982;SDS011;14442;50.196;8.096;2023-06-22T01:33:31;2.43;;;2.33;;
15982;SDS011;14442;50.196;8.096;2023-06-22T01:36:00;3.90;;;2.67;;
15982;SDS011;14442;50.196;8.096;2023-06-22T01:38:29;3.27;;;2.40;;
15982;SDS011;14442;50.196;8.096;2023-06-22T01:40:56;2.17;;;2.07;;
15982;SDS011;14442;50.196;8.096;2023-06-22T01:43:24;2.30;;;2.20;;
15982;SDS011;14442;50.196;8.096;2023-06-22T01:45:54;3.37;;;2.37;;
15982;SDS011;14442;50.196;8.096;2023-06-22T01:48:22;3.27;;;2.20;;
15982;SDS011;14442;50.196;8.096;2023-06-22T01:50:50;4.57;;;2.70;;
15982;SDS011;14442;50.196;8.096;2023-06-22T01:53:18;2.57;;;2.37;;
15982;SDS011;14442;50.196;8.096;2023-06-22T01:55:46;2.87;;;2.67;;
15982;SDS011;14442;50.196;8.096;2023-06-22T01:58:13;2.67;;;2.47;;
15982;SDS011;14442;50.196;8.096;2023-06-22T02:00:40;2.60;;;2.40;;
15982;SDS011;14442;50.196;8.096;2023-06-22T02:03:16;3.07;;;2.53;;
15982;SDS011;14442;50.196;8.096;2023-06-22T02:05:47;5.13;;;2.40;;
15982;SDS011;14442;50.196;8.096;2023-06-22T02:08:17;3.27;;;2.93;;
15982;SDS011;14442;50.196;8.096;2023-06-22T02:10:48;2.70;;;2.50;;
15982;SDS011;14442;50.196;8.096;2023-06-22T02:13:16;2.80;;;2.60;;
15982;SDS011;14442;50.196;8.096;2023-06-22T02:15:43;2.60;;;2.40;;
15982;SDS011;14442;50.196;8.096;2023-06-22T02:18:11;4.97;;;2.30;;
15982;SDS011;14442;50.196;8.096;2023-06-22T02:20:40;3.10;;;2.80;;
15982;SDS011;14442;50.196;8.096;2023-06-22T02:23:07;2.50;;;2.30;;
15982;SDS011;14442;50.196;8.096;2023-06-22T02:25:33;2.67;;;2.47;;
15982;SDS011;14442;50.196;8.096;2023-06-22T02:28:00;3.20;;;2.43;;
15982;SDS011;14442;50.196;8.096;2023-06-22T02:30:27;2.87;;;2.53;;
15982;SDS011;14442;50.196;8.096;2023-06-22T02:32:54;3.63;;;2.17;;
15982;SDS011;14442;50.196;8.096;2023-06-22T02:35:23;3.23;;;3.03;;
15982;SDS011;14442;50.196;8.096;2023-06-22T02:37:52;3.47;;;2.50;;
15982;SDS011;14442;50.196;8.096;2023-06-22T02:40:19;3.57;;;2.60;;
15982;SDS011;14442;50.196;8.096;2023-06-22T02:42:46;3.20;;;2.40;;
15982;SDS011;14442;50.196;8.096;2023-06-22T02:45:13;2.30;;;2.10;;
15982;SDS011;14442;50.196;8.096;2023-06-22T02:47:39;2.97;;;2.23;;
15982;SDS011;14442;50.196;8.096;2023-06-22T02:50:06;4.63;;;2.67;;
15982;SDS011;14442;50.196;8.096;2023-06-22T02:52:34;3.50;;;2.43;;
15982;SDS011;14442;50.196;8.096;2023-06-22T02:55:02;2.80;;;2.60;;
15982;SDS011;14442;50.196;8.096;2023-06-22T02:57:29;2.67;;;2.43;;
15982;SDS011;14442;50.196;8.096;2023-06-22T02:59:56;2.70;;;2.60;;
15982;SDS011;14442;50.196;8.096;2023-06-22T03:02:22;2.47;;;2.37;;
15982;SDS011;14442;50.196;8.096;2023-06-22T03:04:51;3.33;;;2.40;;
15982;SDS011;14442;50.196;8.096;2023-06-22T03:07:18;2.63;;;2.43;;
15982;SDS011;14442;50.196;8.096;2023-06-22T03:09:45;2.50;;;2.30;;
15982;SDS011;14442;50.196;8.096;2023-06-22T03:12:13;2.60;;;2.40;;
15982;SDS011;14442;50.196;8.096;2023-06-22T03:14:40;2.40;;;2.30;;
15982;SDS011;14442;50.196;8.096;2023-06-22T03:17:06;2.53;;;2.33;;
15982;SDS011;14442;50.196;8.096;2023-06-22T03:19:33;2.63;;;2.53;;
15982;SDS011;14442;50.196;8.096;2023-06-22T03:22:00;3.37;;;2.80;;
15982;SDS011;14442;50.196;8.096;2023-06-22T03:24:27;2.57;;;2.40;;
15982;SDS011;14442;50.196;8.096;2023-06-22T03:26:54;2.93;;;2.67;;
15982;SDS011;14442;50.196;8.096;2023-06-22T03:29:22;3.00;;;2.70;;
15982;SDS011;14442;50.196;8.096;2023-06-22T03:31:50;2.87;;;2.30;;
15982;SDS011;14442;50.196;8.096;2023-06-22T03:34:17;2.77;;;2.57;;
15982;SDS011;14442;50.196;8.096;2023-06-22T03:36:44;2.73;;;2.30;;
15982;SDS011;14442;50.196;8.096;2023-06-22T03:39:11;3.07;;;2.70;;
15982;SDS011;14442;50.196;8.096;2023-06-22T03:41:38;3.07;;;2.83;;
15982;SDS011;14442;50.196;8.096;2023-06-22T03:44:04;2.33;;;2.13;;
15982;SDS011;14442;50.196;8.096;2023-06-22T03:46:32;2.73;;;2.53;;
15982;SDS011;14442;50.196;8.096;2023-06-22T03:48:59;2.40;;;2.30;;
15982;SDS011;14442;50.196;8.096;2023-06-22T03:51:28;3.83;;;2.67;;
15982;SDS011;14442;50.196;8.096;2023-06-22T03:53:55;2.43;;;2.23;;
15982;SDS011;14442;50.196;8.096;2023-06-22T03:56:24;2.33;;;2.13;;
15982;SDS011;14442;50.196;8.096;2023-06-22T03:58:51;2.70;;;2.50;;
15982;SDS011;14442;50.196;8.096;2023-06-22T04:01:18;2.80;;;2.20;;
15982;SDS011;14442;50.196;8.096;2023-06-22T04:03:46;3.07;;;2.80;;
15982;SDS011;14442;50.196;8.096;2023-06-22T04:06:14;2.37;;;2.20;;
15982;SDS011;14442;50.196;8.096;2023-06-22T04:08:41;3.10;;;2.90;;
15982;SDS011;14442;50.196;8.096;2023-06-22T04:11:08;6.30;;;2.30;;
15982;SDS011;14442;50.196;8.096;2023-06-22T04:13:34;2.90;;;2.67;;
15982;SDS011;14442;50.196;8.096;2023-06-22T04:16:01;3.77;;;2.30;;
15982;SDS011;14442;50.196;8.096;2023-06-22T04:18:28;3.30;;;2.20;;
15982;SDS011;14442;50.196;8.096;2023-06-22T04:20:56;3.57;;;2.50;;
15982;SDS011;14442;50.196;8.096;2023-06-22T04:23:22;2.80;;;2.60;;
15982;SDS011;14442;50.196;8.096;2023-06-22T04:25:49;2.37;;;2.27;;
15982;SDS011;14442;50.196;8.096;2023-06-22T04:28:16;3.90;;;2.40;;
15982;SDS011;14442;50.196;8.096;2023-06-22T04:30:43;2.70;;;2.50;;
15982;SDS011;14442;50.196;8.096;2023-06-22T04:33:12;2.50;;;2.30;;
15982;SDS011;14442;50.196;8.096;2023-06-22T04:35:39;3.20;;;2.33;;
15982;SDS011;14442;50.196;8.096;2023-06-22T04:38:08;2.40;;;2.20;;
15982;SDS011;14442;50.196;8.096;2023-06-22T04:40:36;3.73;;;2.67;;
15982;SDS011;14442;50.196;8.096;2023-06-22T04:43:03;3.30;;;2.60;;
15982;SDS011;14442;50.196;8.096;2023-06-22T04:45:31;2.40;;;2.23;;
15982;SDS011;14442;50.196;8.096;2023-06-22T04:47:58;5.87;;;2.63;;
15982;SDS011;14442;50.196;8.096;2023-06-22T04:50:25;2.67;;;2.47;;
15982;SDS011;14442;50.196;8.096;2023-06-22T04:52:51;2.67;;;2.47;;
15982;SDS011;14442;50.196;8.096;2023-06-22T04:55:20;3.57;;;2.30;;
15982;SDS011;14442;50.196;8.096;2023-06-22T04:57:47;4.50;;;2.73;;
15982;SDS011;14442;50.196;8.096;2023-06-22T05:00:14;4.67;;;2.80;;
15982;SDS011;14442;50.196;8.096;2023-06-22T05:02:43;2.70;;;2.50;;
15982;SDS011;14442;50.196;8.096;2023-06-22T05:05:11;2.50;;;2.30;;
15982;SDS011;14442;50.196;8.096;2023-06-22T05:07:39;5.47;;;2.77;;
15982;SDS011;14442;50.196;8.096;2023-06-22T05:10:08;2.40;;;2.20;;
15982;SDS011;14442;50.196;8.096;2023-06-22T05:12:38;4.60;;;3.10;;
15982;SDS011;14442;50.196;8.096;2023-06-22T05:15:05;2.33;;;2.13;;
15982;SDS011;14442;50.196;8.096;2023-06-22T05:17:33;4.03;;;2.50;;
15982;SDS011;14442;50.196;8.096;2023-06-22T05:20:08;2.87;;;2.67;;
15982;SDS011;14442;50.196;8.096;2023-06-22T05:22:36;2.20;;;2.10;;
15982;SDS011;14442;50.196;8.096;2023-06-22T05:25:03;2.80;;;2.60;;
15982;SDS011;14442;50.196;8.096;2023-06-22T05:27:31;4.87;;;2.37;;
15982;SDS011;14442;50.196;8.096;2023-06-22T05:29:59;4.53;;;2.50;;
15982;SDS011;14442;50.196;8.096;2023-06-22T05:32:26;4.47;;;2.40;;
15982;SDS011;14442;50.196;8.096;2023-06-22T05:34:52;3.23;;;2.60;;
15982;SDS011;14442;50.196;8.096;2023-06-22T05:37:19;4.50;;;3.00;;
15982;SDS011;14442;50.196;8.096;2023-06-22T05:39:46;3.57;;;2.70;;
15982;SDS011;14442;50.196;8.096;2023-06-22T05:42:13;6.23;;;3.10;;
15982;SDS011;14442;50.196;8.096;2023-06-22T05:44:39;4.57;;;2.40;;
15982;SDS011;14442;50.196;8.096;2023-06-22T05:47:07;4.73;;;2.70;;
15982;SDS011;14442;50.196;8.096;2023-06-22T05:49:34;4.33;;;2.87;;
15982;SDS011;14442;50.196;8.096;2023-06-22T05:52:01;3.07;;;2.77;;
15982;SDS011;14442;50.196;8.096;2023-06-22T05:54:28;3.50;;;3.20;;
15982;SDS011;14442;50.196;8.096;2023-06-22T05:56:54;4.53;;;2.40;;
15982;SDS011;14442;50.196;8.096;2023-06-22T05:59:21;2.70;;;2.50;;
15982;SDS011;14442;50.196;8.096;2023-06-22T06:01:48;3.07;;;2.53;;
15982;SDS011;14442;50.196;8.096;2023-06-22T06:04:17;2.83;;;2.60;;
15982;SDS011;14442;50.196;8.096;2023-06-22T06:06:44;2.80;;;2.60;;
15982;SDS011;14442;50.196;8.096;2023-06-22T06:09:12;2.93;;;2.73;;
15982;SDS011;14442;50.196;8.096;2023-06-22T06:11:39;3.77;;;2.83;;
15982;SDS011;14442;50.196;8.096;2023-06-22T06:14:05;2.63;;;2.43;;
15982;SDS011;14442;50.196;8.096;2023-06-22T06:16:32;2.90;;;2.70;;
15982;SDS011;14442;50.196;8.096;2023-06-22T06:18:59;4.57;;;2.37;;
15982;SDS011;14442;50.196;8.096;2023-06-22T06:21:27;3.70;;;2.67;;
15982;SDS011;14442;50.196;8.096;2023-06-22T06:23:54;3.00;;;2.80;;
15982;SDS011;14442;50.196;8.096;2023-06-22T06:26:20;5.67;;;2.63;;
15982;SDS011;14442;50.196;8.096;2023-06-22T06:28:53;3.37;;;2.50;;
15982;SDS011;14442;50.196;8.096;2023-06-22T06:31:19;4.13;;;2.73;;
15982;SDS011;14442;50.196;8.096;2023-06-22T06:33:46;3.43;;;3.13;;
15982;SDS011;14442;50.196;8.096;2023-06-22T06:36:13;3.37;;;2.80;;
15982;SDS011;14442;50.196;8.096;2023-06-22T06:38:41;5.20;;;3.40;;
15982;SDS011;14442;50.196;8.096;2023-06-22T06:41:08;5.03;;;3.20;;
15982;SDS011;14442;50.196;8.096;2023-06-22T06:43:35;3.50;;;3.20;;
15982;SDS011;14442;50.196;8.096;2023-06-22T06:46:01;3.37;;;3.17;;
15982;SDS011;14442;50.196;8.096;2023-06-22T06:48:29;5.73;;;3.20;;
15982;SDS011;14442;50.196;8.096;2023-06-22T06:50:55;12.50;;;3.67;;
15982;SDS011;14442;50.196;8.096;2023-06-22T06:53:22;5.13;;;2.83;;
15982;SDS011;14442;50.196;8.096;2023-06-22T06:55:50;6.63;;;3.57;;
15982;SDS011;14442;50.196;8.096;2023-06-22T06:58:17;5.77;;;4.40;;
15982;SDS011;14442;50.196;8.096;2023-06-22T07:00:44;7.50;;;3.37;;
15982;SDS011;14442;50.196;8.096;2023-06-22T07:03:11;4.20;;;3.70;;
15982;SDS011;14442;50.196;8.096;2023-06-22T07:05:37;4.93;;;3.77;;
15982;SDS011;14442;50.196;8.096;2023-06-22T07:08:04;8.83;;;3.80;;
15982;SDS011;14442;50.196;8.096;2023-06-22T07:10:31;4.93;;;3.67;;
15982;SDS011;14442;50.196;8.096;2023-06-22T07:12:59;5.37;;;3.60;;
15982;SDS011;14442;50.196;8.096;2023-06-22T07:15:26;6.63;;;3.93;;
15982;SDS011;14442;50.196;8.096;2023-06-22T07:17:52;7.23;;;4.03;;
15982;SDS011;14442;50.196;8.096;2023-06-22T07:20:19;6.83;;;4.30;;
15982;SDS011;14442;50.196;8.096;2023-06-22T07:22:46;7.00;;;3.87;;
15982;SDS011;14442;50.196;8.096;2023-06-22T07:25:13;9.33;;;4.27;;
15982;SDS011;14442;50.196;8.096;2023-06-22T07:27:45;5.40;;;3.87;;
15982;SDS011;14442;50.196;8.096;2023-06-22T07:30:14;8.93;;;4.53;;
15982;SDS011;14442;50.196;8.096;2023-06-22T07:32:41;5.80;;;3.93;;
15982;SDS011;14442;50.196;8.096;2023-06-22T07:35:08;8.90;;;4.50;;
15982;SDS011;14442;50.196;8.096;2023-06-22T07:37:35;12.60;;;4.33;;
15982;SDS011;14442;50.196;8.096;2023-06-22T07:40:02;8.97;;;4.53;;
15982;SDS011;14442;50.196;8.096;2023-06-22T07:42:31;8.57;;;4.37;;
15982;SDS011;14442;50.196;8.096;2023-06-22T07:44:58;8.43;;;4.13;;
15982;SDS011;14442;50.196;8.096;2023-06-22T07:47:27;8.07;;;5.57;;
15982;SDS011;14442;50.196;8.096;2023-06-22T07:49:53;10.57;;;5.27;;
15982;SDS011;14442;50.196;8.096;2023-06-22T07:52:22;9.80;;;5.77;;
15982;SDS011;14442;50.196;8.096;2023-06-22T07:54:49;9.87;;;5.77;;
15982;SDS011;14442;50.196;8.096;2023-06-22T07:57:16;7.43;;;5.10;;
15982;SDS011;14442;50.196;8.096;2023-06-22T07:59:43;9.63;;;5.13;;
15982;SDS011;14442;50.196;8.096;2023-06-22T08:02:10;8.37;;;5.27;;
15982;SDS011;14442;50.196;8.096;2023-06-22T08:04:38;14.13;;;5.97;;
15982;SDS011;14442;50.196;8.096;2023-06-22T08:07:06;7.90;;;5.23;;
15982;SDS011;14442;50.196;8.096;2023-06-22T08:09:32;5.90;;;4.83;;
15982;SDS011;14442;50.196;8.096;2023-06-22T08:11:59;9.37;;;5.67;;
15982;SDS011;14442;50.196;8.096;2023-06-22T08:14:26;8.47;;;5.33;;
15982;SDS011;14442;50.196;8.096;2023-06-22T08:16:53;8.30;;;5.03;;
15982;SDS011;14442;50.196;8.096;2023-06-22T08:19:20;7.90;;;4.90;;
15982;SDS011;14442;50.196;8.096;2023-06-22T08:21:48;5.93;;;5.10;;
15982;SDS011;14442;50.196;8.096;2023-06-22T08:24:15;7.83;;;5.27;;
15982;SDS011;14442;50.196;8.096;2023-06-22T08:26:42;6.40;;;4.93;;
15982;SDS011;14442;50.196;8.096;2023-06-22T08:29:08;9.63;;;5.40;;
15982;SDS011;14442;50.196;8.096;2023-06-22T08:31:35;8.80;;;5.70;;
15982;SDS011;14442;50.196;8.096;2023-06-22T08:34:02;6.07;;;4.93;;
15982;SDS011;14442;50.196;8.096;2023-06-22T08:36:29;7.07;;;5.07;;
15982;SDS011;14442;50.196;8.096;2023-06-22T08:38:58;7.33;;;5.27;;
15982;SDS011;14442;50.196;8.096;2023-06-22T08:41:28;7.53;;;5.70;;
15982;SDS011;14442;50.196;8.096;2023-06-22T08:43:55;8.00;;;5.57;;
15982;SDS011;14442;50.196;8.096;2023-06-22T08:46:22;8.43;;;5.27;;
15982;SDS011;14442;50.196;8.096;2023-06-22T08:48:55;8.83;;;6.00;;
15982;SDS011;14442;50.196;8.096;2023-06-22T08:51:22;6.83;;;6.17;;
15982;SDS011;14442;50.196;8.096;2023-06-22T08:53:48;6.00;;;5.50;;
15982;SDS011;14442;50.196;8.096;2023-06-22T08:56:16;6.27;;;5.50;;
15982;SDS011;14442;50.196;8.096;2023-06-22T08:58:43;6.03;;;5.43;;
15982;SDS011;14442;50.196;8.096;2023-06-22T09:01:10;6.40;;;5.80;;
15982;SDS011;14442;50.196;8.096;2023-06-22T09:03:37;7.47;;;5.10;;
15982;SDS011;14442;50.196;8.096;2023-06-22T09:06:03;8.60;;;5.50;;
15982;SDS011;14442;50.196;8.096;2023-06-22T09:08:30;6.47;;;5.30;;
15982;SDS011;14442;50.196;8.096;2023-06-22T09:10:57;8.17;;;5.57;;
15982;SDS011;14442;50.196;8.096;2023-06-22T09:13:25;5.80;;;5.37;;
15982;SDS011;14442;50.196;8.096;2023-06-22T09:15:52;7.07;;;5.23;;
15982;SDS011;14442;50.196;8.096;2023-06-22T09:18:19;6.80;;;5.60;;
15982;SDS011;14442;50.196;8.096;2023-06-22T09:20:46;6.93;;;5.73;;
15982;SDS011;14442;50.196;8.096;2023-06-22T09:23:13;9.43;;;5.73;;
15982;SDS011;14442;50.196;8.096;2023-06-22T09:25:40;11.50;;;5.67;;
15982;SDS011;14442;50.196;8.096;2023-06-22T09:28:07;8.53;;;5.80;;
15982;SDS011;14442;50.196;8.096;2023-06-22T09:30:35;7.10;;;4.83;;
15982;SDS011;14442;50.196;8.096;2023-06-22T09:33:01;14.97;;;6.93;;
15982;SDS011;14442;50.196;8.096;2023-06-22T09:35:28;15.03;;;5.53;;
15982;SDS011;14442;50.196;8.096;2023-06-22T09:37:55;12.00;;;5.53;;
15982;SDS011;14442;50.196;8.096;2023-06-22T09:40:21;13.57;;;5.60;;
15982;SDS011;14442;50.196;8.096;2023-06-22T09:42:48;21.30;;;6.70;;
15982;SDS011;14442;50.196;8.096;2023-06-22T09:45:15;20.47;;;6.03;;
15982;SDS011;14442;50.196;8.096;2023-06-22T09:47:43;18.37;;;5.80;;
15982;SDS011;14442;50.196;8.096;2023-06-22T09:50:10;13.43;;;6.07;;
15982;SDS011;14442;50.196;8.096;2023-06-22T09:52:36;18.33;;;6.03;;
15982;SDS011;14442;50.196;8.096;2023-06-22T09:55:03;15.77;;;6.50;;
15982;SDS011;14442;50.196;8.096;2023-06-22T09:57:31;22.60;;;6.03;;
15982;SDS011;14442;50.196;8.096;2023-06-22T09:59:57;30.77;;;6.40;;
15982;SDS011;14442;50.196;8.096;2023-06-22T10:02:24;18.67;;;6.67;;
15982;SDS011;14442;50.196;8.096;2023-06-22T10:04:52;16.97;;;6.53;;
15982;SDS011;14442;50.196;8.096;2023-06-22T10:07:19;11.57;;;5.77;;
15982;SDS011;14442;50.196;8.096;2023-06-22T10:09:45;11.70;;;5.83;;
15982;SDS011;14442;50.196;8.096;2023-06-22T10:12:12;17.23;;;5.77;;
15982;SDS011;14442;50.196;8.096;2023-06-22T10:14:39;11.33;;;6.07;;
15982;SDS011;14442;50.196;8.096;2023-06-22T10:17:05;14.20;;;5.70;;
15982;SDS011;14442;50.196;8.096;2023-06-22T10:19:33;13.20;;;5.53;;
15982;SDS011;14442;50.196;8.096;2023-06-22T10:22:03;13.20;;;6.33;;
15982;SDS011;14442;50.196;8.096;2023-06-22T10:24:30;14.63;;;5.23;;
15982;SDS011;14442;50.196;8.096;2023-06-22T10:26:57;17.57;;;5.93;;
15982;SDS011;14442;50.196;8.096;2023-06-22T10:29:24;13.63;;;6.17;;
15982;SDS011;14442;50.196;8.096;2023-06-22T10:31:50;10.97;;;5.27;;
15982;SDS011;14442;50.196;8.096;2023-06-22T10:34:17;10.23;;;5.23;;
15982;SDS011;14442;50.196;8.096;2023-06-22T10:36:44;12.93;;;6.20;;
15982;SDS011;14442;50.196;8.096;2023-06-22T10:39:14;16.87;;;6.40;;
15982;SDS011;14442;50.196;8.096;2023-06-22T10:41:41;11.40;;;5.50;;
15982;SDS011;14442;50.196;8.096;2023-06-22T10:44:08;18.70;;;5.37;;
15982;SDS011;14442;50.196;8.096;2023-06-22T10:46:35;15.90;;;5.87;;
15982;SDS011;14442;50.196;8.096;2023-06-22T10:49:01;12.87;;;5.63;;
15982;SDS011;14442;50.196;8.096;2023-06-22T10:51:28;8.43;;;5.50;;
15982;SDS011;14442;50.196;8.096;2023-06-22T10:53:56;12.00;;;5.80;;
15982;SDS011;14442;50.196;8.096;2023-06-22T10:56:24;7.67;;;5.10;;
15982;SDS011;14442;50.196;8.096;2023-06-22T10:58:51;24.03;;;5.57;;
15982;SDS011;14442;50.196;8.096;2023-06-22T11:01:17;10.00;;;5.10;;
15982;SDS011;14442;50.196;8.096;2023-06-22T11:03:45;9.13;;;5.00;;
15982;SDS011;14442;50.196;8.096;2023-06-22T11:06:11;8.30;;;4.90;;
15982;SDS011;14442;50.196;8.096;2023-06-22T11:08:39;9.83;;;5.20;;
15982;SDS011;14442;50.196;8.096;2023-06-22T11:11:06;11.17;;;4.97;;
15982;SDS011;14442;50.196;8.096;2023-06-22T11:13:34;9.33;;;5.10;;
15982;SDS011;14442;50.196;8.096;2023-06-22T11:16:01;6.73;;;5.17;;
15982;SDS011;14442;50.196;8.096;2023-06-22T11:18:27;14.27;;;5.57;;
15982;SDS011;14442;50.196;8.096;2023-06-22T11:20:54;9.77;;;5.67;;
15982;SDS011;14442;50.196;8.096;2023-06-22T11:23:21;9.07;;;5.30;;
15982;SDS011;14442;50.196;8.096;2023-06-22T11:25:47;6.90;;;4.47;;
15982;SDS011;14442;50.196;8.096;2023-06-22T11:28:14;8.63;;;4.50;;
15982;SDS011;14442;50.196;8.096;2023-06-22T11:30:42;6.07;;;4.77;;
15982;SDS011;14442;50.196;8.096;2023-06-22T11:33:09;8.33;;;4.70;;
15982;SDS011;14442;50.196;8.096;2023-06-22T11:35:35;7.57;;;4.47;;
15982;SDS011;14442;50.196;8.096;2023-06-22T11:38:02;8.63;;;5.40;;
15982;SDS011;14442;50.196;8.096;2023-06-22T11:40:29;7.03;;;4.67;;
15982;SDS011;14442;50.196;8.096;2023-06-22T11:42:56;5.63;;;4.60;;
15982;SDS011;14442;50.196;8.096;2023-06-22T11:45:23;11.10;;;4.73;;
15982;SDS011;14442;50.196;8.096;2023-06-22T11:47:51;8.10;;;5.33;;
15982;SDS011;14442;50.196;8.096;2023-06-22T11:50:18;6.93;;;5.10;;
15982;SDS011;14442;50.196;8.096;2023-06-22T11:52:44;9.37;;;5.03;;
15982;SDS011;14442;50.196;8.096;2023-06-22T11:55:11;8.20;;;5.17;;
15982;SDS011;14442;50.196;8.096;2023-06-22T11:57:38;8.93;;;5.23;;
15982;SDS011;14442;50.196;8.096;2023-06-22T12:00:18;11.63;;;4.40;;
15982;SDS011;14442;50.196;8.096;2023-06-22T12:02:45;8.87;;;4.87;;
15982;SDS011;14442;50.196;8.096;2023-06-22T12:05:13;14.67;;;4.90;;
15982;SDS011;14442;50.196;8.096;2023-06-22T12:07:40;12.03;;;5.50;;
15982;SDS011;14442;50.196;8.096;2023-06-22T12:10:07;13.13;;;5.27;;
15982;SDS011;14442;50.196;8.096;2023-06-22T12:12:34;21.27;;;5.67;;
15982;SDS011;14442;50.196;8.096;2023-06-22T12:15:01;13.50;;;5.17;;
15982;SDS011;14442;50.196;8.096;2023-06-22T12:17:28;13.10;;;5.33;;
15982;SDS011;14442;50.196;8.096;2023-06-22T12:19:55;13.30;;;5.53;;
15982;SDS011;14442;50.196;8.096;2023-06-22T12:22:23;11.90;;;5.10;;
15982;SDS011;14442;50.196;8.096;2023-06-22T12:24:50;10.97;;;5.40;;
15982;SDS011;14442;50.196;8.096;2023-06-22T12:27:17;7.37;;;5.07;;
15982;SDS011;14442;50.196;8.096;2023-06-22T12:29:45;12.97;;;5.87;;
15982;SDS011;14442;50.196;8.096;2023-06-22T12:32:12;7.73;;;5.40;;
15982;SDS011;14442;50.196;8.096;2023-06-22T12:34:39;12.13;;;5.20;;
15982;SDS011;14442;50.196;8.096;2023-06-22T12:37:06;12.57;;;6.97;;
15982;SDS011;14442;50.196;8.096;2023-06-22T12:39:34;19.47;;;7.80;;
15982;SDS011;14442;50.196;8.096;2023-06-22T12:42:01;18.80;;;8.70;;
15982;SDS011;14442;50.196;8.096;2023-06-22T12:44:27;21.77;;;9.20;;
15982;SDS011;14442;50.196;8.096;2023-06-22T12:46:54;21.50;;;9.23;;
15982;SDS011;14442;50.196;8.096;2023-06-22T12:49:21;23.77;;;9.50;;
15982;SDS011;14442;50.196;8.096;2023-06-22T12:51:48;23.23;;;10.03;;
15982;SDS011;14442;50.196;8.096;2023-06-22T12:54:14;20.10;;;9.33;;
15982;SDS011;14442;50.196;8.096;2023-06-22T12:56:43;26.87;;;9.87;;
15982;SDS011;14442;50.196;8.096;2023-06-22T12:59:10;23.80;;;8.83;;
15982;SDS011;14442;50.196;8.096;2023-06-22T13:01:37;18.73;;;9.43;;
15982;SDS011;14442;50.196;8.096;2023-06-22T13:04:03;18.63;;;9.70;;
15982;SDS011;14442;50.196;8.096;2023-06-22T13:06:30;25.50;;;10.60;;
15982;SDS011;14442;50.196;8.096;2023-06-22T13:08:57;23.50;;;9.30;;
15982;SDS011;14442;50.196;8.096;2023-06-22T13:11:24;20.33;;;8.60;;
15982;SDS011;14442;50.196;8.096;2023-06-22T13:13:52;17.67;;;9.03;;
15982;SDS011;14442;50.196;8.096;2023-06-22T13:16:18;17.30;;;8.83;;
15982;SDS011;14442;50.196;8.096;2023-06-22T13:18:45;15.07;;;7.83;;
15982;SDS011;14442;50.196;8.096;2023-06-22T13:21:12;15.20;;;8.57;;
15982;SDS011;14442;50.196;8.096;2023-06-22T13:23:39;15.50;;;7.77;;
15982;SDS011;14442;50.196;8.096;2023-06-22T13:26:06;14.83;;;8.03;;
15982;SDS011;14442;50.196;8.096;2023-06-22T13:28:33;15.53;;;7.37;;
15982;SDS011;14442;50.196;8.096;2023-06-22T13:31:01;16.90;;;7.67;;
15982;SDS011;14442;50.196;8.096;2023-06-22T13:33:28;15.70;;;8.40;;
15982;SDS011;14442;50.196;8.096;2023-06-22T13:35:55;14.13;;;7.80;;
15982;SDS011;14442;50.196;8.096;2023-06-22T13:38:21;12.93;;;8.00;;
15982;SDS011;14442;50.196;8.096;2023-06-22T13:40:48;15.03;;;7.13;;
15982;SDS011;14442;50.196;8.096;2023-06-22T13:43:16;14.80;;;7.33;;
15982;SDS011;14442;50.196;8.096;2023-06-22T13:45:43;14.80;;;7.50;;
15982;SDS011;14442;50.196;8.096;2023-06-22T13:48:11;11.90;;;6.60;;
15982;SDS011;14442;50.196;8.096;2023-06-22T13:50:38;12.43;;;7.40;;
15982;SDS011;14442;50.196;8.096;2023-06-22T13:53:05;11.53;;;7.10;;
15982;SDS011;14442;50.196;8.096;2023-06-22T13:55:31;9.73;;;6.77;;
15982;SDS011;14442;50.196;8.096;2023-06-22T13:57:58;10.27;;;6.70;;
15982;SDS011;14442;50.196;8.096;2023-06-22T14:00:25;14.63;;;7.13;;
15982;SDS011;14442;50.196;8.096;2023-06-22T14:02:52;9.70;;;6.33;;
15982;SDS011;14442;50.196;8.096;2023-06-22T14:05:21;9.70;;;6.67;;
15982;SDS011;14442;50.196;8.096;2023-06-22T14:07:47;9.93;;;6.87;;
15982;SDS011;14442;50.196;8.096;2023-06-22T14:10:14;11.60;;;7.00;;
15982;SDS011;14442;50.196;8.096;2023-06-22T14:12:41;11.90;;;6.27;;
15982;SDS011;14442;50.196;8.096;2023-06-22T14:15:08;11.27;;;7.20;;
15982;SDS011;14442;50.196;8.096;2023-06-22T14:17:35;13.30;;;6.63;;
15982;SDS011;14442;50.196;8.096;2023-06-22T14:20:01;8.60;;;6.17;;
15982;SDS011;14442;50.196;8.096;2023-06-22T14:22:31;11.00;;;6.40;;
15982;SDS011;14442;50.196;8.096;2023-06-22T14:25:00;10.33;;;6.87;;
15982;SDS011;14442;50.196;8.096;2023-06-22T14:27:27;9.23;;;6.30;;
15982;SDS011;14442;50.196;8.096;2023-06-22T14:29:53;9.27;;;6.07;;
15982;SDS011;14442;50.196;8.096;2023-06-22T14:32:20;9.67;;;6.33;;
15982;SDS011;14442;50.196;8.096;2023-06-22T14:34:47;9.17;;;6.40;;
15982;SDS011;14442;50.196;8.096;2023-06-22T14:37:15;10.40;;;6.23;;
15982;SDS011;14442;50.196;8.096;2023-06-22T14:39:43;10.53;;;7.07;;
15982;SDS011;14442;50.196;8.096;2023-06-22T14:42:09;7.50;;;5.73;;
15982;SDS011;14442;50.196;8.096;2023-06-22T14:44:36;7.97;;;6.43;;